Monte Alegre do Sul, Brazil
Current Conditions -  °F | °C
As of 7:00 AM on Monday 24 Nov 2014 (Local Time) from SBKP Reporting Station
Clear Clear  
Wind Chill: 70°   Ceiling: Unl
Heat Index: 70°   Visibility: 6mi
Dew Point: 64°   Wind: 10mph
Humidity: 83%   Direction: 120°ESE
Pressure: 30.03"   Gusts: NA
Location:  22.68°S, 46.68°W
Report Text: SBKP 240900Z 12009KT CAVOK 21/18 Q1017
Loading
Personal Weather Stations






























Interactive Weather Map New forecast layout! Learn more

10-Day Weather Forecast

Advertisements
Track Severe Weather on mobile